ADDS METAR Data INFO
IDs: Format: Raw Decoded Include TAF

Data at: 0839 UTC 21 Oct 2017

KVPZ 210756Z AUTO 17005KT 10SM CLR 14/09 A3011 RMK AO2 SLP192 T01440094 TSNO
KVPZ 210656Z AUTO 16006KT 10SM CLR 16/09 A3011 RMK AO2 SLP191 T01560094 TSNO
KVPZ 210556Z AUTO 18007KT 10SM CLR 16/09 A3011 RMK AO2 SLP192 T01560094 10200 20156 402610072 52000 TSNO
KVPZ 210456Z AUTO 19004KT 10SM CLR 16/09 A3011 RMK AO2 SLP192 T01560094 TSNO
KVPZ 210356Z AUTO 17005KT 10SM CLR 16/10 A3011 RMK AO2 SLP192 T01560100 TSNO
KVPZ 210256Z AUTO 16004KT 10SM CLR 17/10 A3011 RMK AO2 SLP193 T01720100 55000 TSNO
KVPZ 210156Z AUTO 16005KT 10SM CLR 18/10 A3010 RMK AO2 SLP193 T01830100 TSNO
KVPZ 210056Z AUTO 16004KT 10SM CLR 19/10 A3010 RMK AO2 SLP193 T01890100 TSNO
KVPZ 202356Z AUTO 17005KT 10SM CLR 20/10 A3011 RMK AO2 SLP195 T02000100 10261 20200 55001 TSNO
KVPZ 202256Z AUTO 17006KT 10SM CLR 22/11 A3010 RMK AO2 SLP193 T02220106 TSNO
KVPZ 202156Z AUTO 18006KT 8SM CLR 24/11 A3010 RMK AO2 SLP192 T02440106 TSNO
KVPZ 202056Z AUTO 17008KT 8SM CLR 26/11 A3011 RMK AO2 SLP194 T02560106 56019 TSNO
KVPZ 201956Z AUTO 18012G17KT 10SM CLR 26/11 A3012 RMK AO2 SLP197 T02610106 TSNO
KVPZ 201856Z AUTO 18008G16KT 10SM CLR 26/11 A3014 RMK AO2 SLP205 T02610111 TSNO
KVPZ 201756Z AUTO 20011KT 10SM CLR 25/12 A3017 RMK AO2 SLP213 T02500117 10256 20078 58019 TSNO
KVPZ 201656Z AUTO 18008KT 10SM CLR 24/12 A3019 RMK AO2 SLP221 T02390122 TSNO
KVPZ 201556Z AUTO 19006KT 10SM CLR 22/12 A3022 RMK AO2 SLP231 T02170117 TSNO
KVPZ 201456Z AUTO 20008KT 10SM CLR 18/12 A3023 RMK AO2 SLP235 T01830117 50004 TSNO
KVPZ 201356Z AUTO 19007KT 6SM HZ CLR 14/11 A3023 RMK AO2 SLP238 T01440106 TSNO
KVPZ 201256Z AUTO 00000KT 8SM CLR 10/08 A3022 RMK AO2 SLP236 T01000083 TSNO
KVPZ 201156Z AUTO 00000KT 10SM CLR 08/06 A3021 RMK AO2 SLP233 T00830056 10106 20072 51007 TSNO
KVPZ 201056Z AUTO 00000KT 10SM CLR 08/04 A3021 RMK AO2 SLP232 T00780044 TSNO
KVPZ 200956Z AUTO 00000KT 10SM CLR 08/04 A3020 RMK AO2 SLP227 T00830039 TSNO
KVPZ 200856Z AUTO 08004KT 10SM CLR 08/03 A3019 RMK AO2 SLP224 T00830033 53002 TSNO
KVPZ 200756Z AUTO 08003KT 10SM CLR 09/03 A3019 RMK AO2 SLP223 T00890033 TSNO
KVPZ 200656Z AUTO 08003KT 10SM CLR 10/03 A3019 RMK AO2 SLP221 T01000033 TSNO
KVPZ 200556Z AUTO 07003KT 10SM CLR 09/03 A3019 RMK AO2 SLP222 T00940033 10133 20094 402170089 58001 TSNO
KVPZ 200456Z AUTO 10004KT 10SM CLR 10/04 A3019 RMK AO2 SLP223 T01000039 TSNO
KVPZ 200356Z AUTO 08005KT 10SM CLR 10/04 A3019 RMK AO2 SLP224 T01000044 TSNO
KVPZ 200256Z AUTO 08004KT 10SM CLR 11/04 A3019 RMK AO2 SLP223 T01060044 55001 TSNO
KVPZ 200156Z AUTO 06004KT 10SM CLR 11/04 A3019 RMK AO2 SLP223 T01110044 TSNO
KVPZ 200056Z AUTO 04004KT 10SM CLR 11/04 A3019 RMK AO2 SLP225 T01110044 TSNO
KVPZ 192356Z AUTO 00000KT 10SM CLR 13/04 A3019 RMK AO2 SLP225 T01330039 10217 20122 51003 TSNO
KVPZ 192256Z AUTO 03004KT 10SM CLR 16/04 A3019 RMK AO2 SLP223 T01560044 TSNO
KVPZ 192156Z AUTO 01004KT 10SM CLR 19/01 A3019 RMK AO2 SLP223 T01890011 TSNO
KVPZ 192056Z AUTO VRB03KT 10SM CLR 21/M02 A3018 RMK AO2 SLP220 T02111022 55002 TSNO